Time;durP1;ratioP1;P1;durP2;ratioP2;P2;SDS_P1;SDS_P2;PMS_P1;PMS_P2;Temp;Humidity;BMP_temperature;BMP_pressure;BME280_temperature;BME280_humidity;BME280_pressure;Samples;Min_cycle;Max_cycle;Signal;HPM_P1;HPM_P2
2023/07/13 00:01:49;;;;;;;6.30;3.90;;;26.70;99.90;;;;;;5133875;28;20339;-58
2023/07/13 00:04:17;;;;;;;5.82;4.43;;;26.70;99.90;;;;;;5134037;28;20028;-55
2023/07/13 00:06:44;;;;;;;6.82;4.47;;;26.40;99.90;;;;;;5134057;28;20051;-57
2023/07/13 00:09:13;;;;;;;6.45;3.92;;;26.30;99.90;;;;;;5134257;28;20023;-56
2023/07/13 00:11:39;;;;;;;6.18;3.78;;;26.30;99.90;;;;;;5134159;28;20031;-56
2023/07/13 00:14:05;;;;;;;4.93;3.65;;;26.20;99.90;;;;;;5133778;28;20023;-58
2023/07/13 00:16:31;;;;;;;6.90;4.03;;;26.10;99.90;;;;;;5133588;28;20035;-57
2023/07/13 00:18:56;;;;;;;5.53;4.15;;;26.10;99.90;;;;;;5133919;27;20080;-57
2023/07/13 00:21:22;;;;;;;7.20;3.72;;;26.00;99.90;;;;;;5133764;27;20470;-56
2023/07/13 00:23:48;;;;;;;5.93;4.07;;;25.90;99.90;;;;;;5114813;28;20057;-58
2023/07/13 00:26:14;;;;;;;6.00;4.43;;;26.20;99.90;;;;;;5133163;27;20038;-55
2023/07/13 00:28:41;;;;;;;9.27;4.25;;;26.30;99.90;;;;;;5114894;28;20035;-57
2023/07/13 00:31:08;;;;;;;6.60;4.05;;;26.50;99.90;;;;;;5134003;27;20035;-58
2023/07/13 00:33:33;;;;;;;6.53;4.18;;;26.60;99.90;;;;;;5134265;27;20066;-55
2023/07/13 00:35:59;;;;;;;7.43;4.20;;;26.70;99.90;;;;;;5134246;28;20419;-56
2023/07/13 00:38:25;;;;;;;7.40;3.67;;;26.70;99.90;;;;;;5133690;28;20027;-59
2023/07/13 00:40:51;;;;;;;8.20;4.32;;;26.80;99.90;;;;;;5133599;27;20390;-55
2023/07/13 00:43:19;;;;;;;5.15;3.58;;;26.80;99.90;;;;;;5133696;28;20027;-57
2023/07/13 00:45:45;;;;;;;5.70;4.15;;;26.70;99.90;;;;;;5133166;27;20035;-57
2023/07/13 00:48:17;;;;;;;7.57;3.90;;;26.70;99.90;;;;;;5133601;27;20160;-55
2023/07/13 00:50:46;;;;;;;6.32;4.22;;;26.70;99.90;;;;;;5133952;27;20470;-58
2023/07/13 00:53:13;;;;;;;7.95;4.45;;;26.70;99.90;;;;;;5133474;27;20043;-57
2023/07/13 00:55:39;;;;;;;5.03;3.65;;;26.90;99.90;;;;;;5133615;27;20072;-56
2023/07/13 00:58:06;;;;;;;5.63;3.58;;;26.90;99.90;;;;;;5133602;27;20039;-59
2023/07/13 01:00:35;;;;;;;6.82;4.13;;;26.90;99.90;;;;;;5134195;28;20061;-54
2023/07/13 01:03:04;;;;;;;6.30;4.07;;;27.00;99.90;;;;;;5133536;27;20089;-55
2023/07/13 01:05:31;;;;;;;7.28;4.15;;;27.00;99.90;;;;;;5137269;27;20115;-58
2023/07/13 01:07:58;;;;;;;6.22;3.67;;;;;;;;;;5137244;27;20026;-58
2023/07/13 01:10:24;;;;;;;7.13;3.80;;;27.00;99.90;;;;;;5137332;27;20050;-56
2023/07/13 01:12:50;;;;;;;6.05;3.72;;;27.10;99.90;;;;;;5137050;27;20027;-56
2023/07/13 01:15:41;;;;;;;8.98;3.60;;;27.10;99.90;;;;;;5137084;27;20019;-59
2023/07/13 01:18:18;;;;;;;5.32;3.83;;;26.90;99.90;;;;;;5137354;27;20034;-57
2023/07/13 01:21:01;;;;;;;9.32;3.92;;;26.90;99.90;;;;;;5135367;27;20386;-56
2023/07/13 01:23:29;;;;;;;6.85;3.97;;;26.70;99.90;;;;;;5136966;27;20110;-54
2023/07/13 01:25:55;;;;;;;6.25;3.65;;;26.80;99.90;;;;;;5136985;27;20501;-57
2023/07/13 01:28:22;;;;;;;6.70;3.33;;;26.70;99.90;;;;;;5136537;27;20157;-56
2023/07/13 01:30:48;;;;;;;4.97;3.92;;;26.70;99.90;;;;;;5136944;27;20531;-59
2023/07/13 01:33:18;;;;;;;6.45;3.70;;;26.60;99.90;;;;;;5136504;27;20033;-54
2023/07/13 01:35:44;;;;;;;6.05;4.03;;;26.50;99.90;;;;;;5136977;27;20065;-59
2023/07/13 01:38:11;;;;;;;4.55;3.75;;;26.50;99.90;;;;;;5117494;27;20513;-56
2023/07/13 01:40:37;;;;;;;5.20;3.95;;;26.50;99.90;;;;;;5136932;27;20049;-55
2023/07/13 01:43:03;;;;;;;9.02;4.28;;;26.60;99.90;;;;;;5045979;28;20436;-57
2023/07/13 01:45:29;;;;;;;6.35;4.13;;;26.60;99.90;;;;;;5113552;28;20126;-54
2023/07/13 01:47:55;;;;;;;6.88;4.50;;;26.60;99.90;;;;;;5113629;28;20118;-59
2023/07/13 01:50:21;;;;;;;5.97;3.80;;;26.60;99.90;;;;;;5113617;28;20641;-58
2023/07/13 01:52:46;;;;;;;7.18;3.85;;;26.60;99.90;;;;;;5113509;28;20044;-54
2023/07/13 01:55:15;;;;;;;5.05;4.10;;;26.50;99.90;;;;;;5113471;28;20081;-57
2023/07/13 01:57:40;;;;;;;5.55;4.20;;;26.40;99.90;;;;;;5113570;28;20111;-56
2023/07/13 02:00:09;;;;;;;6.43;4.30;;;26.40;99.90;;;;;;5096326;28;20118;-57
2023/07/13 02:02:35;;;;;;;7.90;4.55;;;26.20;99.90;;;;;;5072645;28;20048;-59
2023/07/13 02:05:00;;;;;;;6.15;4.50;;;25.80;99.90;;;;;;5072956;28;20051;-55
2023/07/13 02:07:26;;;;;;;6.75;4.78;;;25.60;99.90;;;;;;5072586;28;20063;-58
2023/07/13 02:09:52;;;;;;;10.02;4.85;;;25.40;99.90;;;;;;5072860;28;20032;-56
2023/07/13 02:12:18;;;;;;;5.97;4.20;;;;;;;;;;5072506;28;20119;-57
2023/07/13 02:14:44;;;;;;;7.10;4.50;;;;;;;;;;5088144;28;20035;-57
2023/07/13 02:17:10;;;;;;;7.13;4.07;;;25.10;99.90;;;;;;5092502;28;20032;-59
2023/07/13 02:19:36;;;;;;;8.88;4.45;;;25.20;99.90;;;;;;5092989;28;20032;-55
2023/07/13 02:22:02;;;;;;;5.60;5.05;;;25.30;99.90;;;;;;5092664;28;20114;-57
2023/07/13 02:24:28;;;;;;;7.10;4.60;;;25.30;99.90;;;;;;5092144;28;20071;-59
2023/07/13 02:26:54;;;;;;;6.53;3.95;;;25.30;99.90;;;;;;5092593;28;20566;-56
2023/07/13 02:29:20;;;;;;;6.50;4.28;;;25.30;99.90;;;;;;5092433;28;20391;-56
2023/07/13 02:31:45;;;;;;;5.82;3.97;;;25.30;99.90;;;;;;5092624;28;20032;-58
2023/07/13 02:34:11;;;;;;;6.30;4.10;;;25.10;99.90;;;;;;5094054;28;20028;-54
2023/07/13 02:36:37;;;;;;;5.80;4.35;;;25.10;99.90;;;;;;5105949;28;20477;-54
2023/07/13 02:39:05;;;;;;;6.30;4.55;;;24.80;99.90;;;;;;5114907;28;20035;-54
2023/07/13 02:41:31;;;;;;;7.60;4.00;;;;;;;;;;5115128;28;20023;-58
2023/07/13 02:44:03;;;;;;;6.75;4.10;;;24.70;99.90;;;;;;5114682;28;20041;-58
2023/07/13 02:46:30;;;;;;;6.05;4.45;;;24.70;99.90;;;;;;5112865;28;20051;-55
2023/07/13 02:48:56;;;;;;;8.75;4.55;;;24.80;99.90;;;;;;5114765;28;20023;-55
2023/07/13 02:51:22;;;;;;;5.75;4.53;;;24.80;99.90;;;;;;5114079;28;20016;-58
2023/07/13 02:53:47;;;;;;;6.43;4.63;;;24.80;99.90;;;;;;5124090;27;20054;-57
2023/07/13 02:56:13;;;;;;;6.90;4.30;;;24.60;99.90;;;;;;5132980;27;20027;-58
2023/07/13 02:58:38;;;;;;;7.47;4.55;;;24.60;99.90;;;;;;5134817;27;20390;-56
2023/07/13 03:01:09;;;;;;;5.93;4.57;;;24.60;99.90;;;;;;5135072;27;20027;-55
2023/07/13 03:03:35;;;;;;;7.18;4.30;;;24.80;99.90;;;;;;5134878;27;20542;-55
2023/07/13 03:06:03;;;;;;;8.63;4.68;;;24.90;99.90;;;;;;5134536;27;20031;-56
2023/07/13 03:08:29;;;;;;;6.57;4.82;;;24.80;99.90;;;;;;5134732;27;20038;-56
2023/07/13 03:11:16;;;;;;;6.50;4.85;;;24.90;99.90;;;;;;5134990;27;20030;-57
2023/07/13 03:13:42;;;;;;;9.25;4.78;;;24.80;99.90;;;;;;5135074;27;20219;-57
2023/07/13 03:16:10;;;;;;;9.27;5.25;;;24.70;99.90;;;;;;5134405;27;20023;-56
2023/07/13 03:18:36;;;;;;;5.72;4.68;;;24.80;99.90;;;;;;5135023;27;20035;-58
2023/07/13 03:21:02;;;;;;;9.43;7.10;;;24.90;99.90;;;;;;5134814;27;20026;-57
2023/07/13 03:23:28;;;;;;;9.00;5.22;;;25.00;99.90;;;;;;5134668;27;20023;-58
2023/07/13 03:26:13;;;;;;;7.75;4.90;;;24.70;99.90;;;;;;5134009;27;20088;-57
2023/07/13 03:28:39;;;;;;;5.95;4.43;;;;;;;;;;5134669;27;20042;-60
2023/07/13 03:31:07;;;;;;;6.97;4.50;;;;;;;;;;5132924;27;20039;-58
2023/07/13 03:33:33;;;;;;;7.13;5.35;;;;;;;;;;5134418;27;20459;-55
2023/07/13 03:36:00;;;;;;;9.43;4.72;;;;;;;;;;5134713;27;20027;-58
2023/07/13 03:38:26;;;;;;;6.20;4.88;;;24.80;99.90;;;;;;5134499;27;20019;-57
2023/07/13 03:40:52;;;;;;;5.15;3.97;;;;;;;;;;5134323;27;20023;-57
2023/07/13 03:43:17;;;;;;;9.25;4.55;;;25.00;99.90;;;;;;5134420;27;20031;-58
2023/07/13 03:45:43;;;;;;;5.15;4.28;;;25.20;99.90;;;;;;5133559;27;20038;-56
2023/07/13 03:48:09;;;;;;;7.35;4.68;;;;;;;;;;5129576;27;20027;-59
2023/07/13 03:50:35;;;;;;;8.65;4.63;;;25.30;99.90;;;;;;5133163;27;20023;-58
2023/07/13 03:53:01;;;;;;;5.28;4.07;;;25.20;99.90;;;;;;5096776;27;20535;-55
2023/07/13 03:55:26;;;;;;;9.45;5.00;;;25.30;99.90;;;;;;5131284;27;20069;-56
2023/07/13 03:57:59;;;;;;;7.60;4.50;;;25.40;99.90;;;;;;5114129;28;20055;-55
2023/07/13 04:00:25;;;;;;;6.57;4.55;;;25.20;99.90;;;;;;5131364;28;20019;-59
2023/07/13 04:02:51;;;;;;;6.70;4.57;;;24.80;99.90;;;;;;5133717;28;20102;-59
2023/07/13 04:05:17;;;;;;;8.23;4.75;;;24.60;99.90;;;;;;5133377;27;20031;-55
2023/07/13 04:07:43;;;;;;;6.97;5.20;;;24.60;99.90;;;;;;5133419;27;20467;-55
2023/07/13 04:10:10;;;;;;;7.53;4.95;;;24.80;99.90;;;;;;5133504;28;20482;-56
2023/07/13 04:12:36;;;;;;;7.93;4.15;;;25.00;99.90;;;;;;5132727;28;20130;-56
2023/07/13 04:15:01;;;;;;;10.90;4.22;;;25.00;99.90;;;;;;5133591;27;20474;-55
2023/07/13 04:17:27;;;;;;;4.82;3.88;;;25.00;99.90;;;;;;5133667;28;20039;-56
2023/07/13 04:19:53;;;;;;;8.48;4.13;;;25.20;99.90;;;;;;5114343;28;20037;-55
2023/07/13 04:22:18;;;;;;;8.43;4.90;;;25.10;99.90;;;;;;5111176;28;20118;-55
2023/07/13 04:24:44;;;;;;;7.40;4.63;;;25.10;99.90;;;;;;5133619;28;20443;-54
2023/07/13 04:27:10;;;;;;;6.28;4.60;;;25.00;99.90;;;;;;5133448;28;20054;-56
2023/07/13 04:29:36;;;;;;;6.03;4.03;;;;;;;;;;5114979;28;20043;-55
2023/07/13 04:32:02;;;;;;;7.60;3.83;;;25.30;99.90;;;;;;5133469;28;20031;-54
2023/07/13 04:34:27;;;;;;;9.10;4.25;;;25.30;99.90;;;;;;5132941;28;20111;-55
2023/07/13 04:36:53;;;;;;;6.13;5.10;;;25.50;99.90;;;;;;5133293;28;20023;-56
2023/07/13 04:39:20;;;;;;;6.93;4.68;;;25.50;99.90;;;;;;5137201;27;20038;-54
2023/07/13 04:41:46;;;;;;;10.00;7.60;;;25.70;99.90;;;;;;5138170;27;20030;-55
2023/07/13 04:44:12;;;;;;;6.65;5.85;;;;;;;;;;5118572;27;20043;-55
2023/07/13 04:46:38;;;;;;;9.55;4.95;;;25.90;99.90;;;;;;5137040;27;20054;-54
2023/07/13 04:49:03;;;;;;;5.20;4.07;;;26.10;99.90;;;;;;5135907;27;20413;-57
2023/07/13 04:51:30;;;;;;;6.63;4.45;;;;;;;;;;5137705;27;20118;-56
2023/07/13 04:53:56;;;;;;;9.30;4.40;;;;;;;;;;5134767;27;20047;-57
2023/07/13 04:56:22;;;;;;;7.80;4.65;;;;;;;;;;5136793;27;20096;-56
2023/07/13 04:58:48;;;;;;;5.50;4.10;;;;;;;;;;5137502;27;20092;-57
2023/07/13 05:01:14;;;;;;;6.05;4.47;;;26.80;99.90;;;;;;5137051;27;20066;-54
2023/07/13 05:03:40;;;;;;;6.90;4.20;;;;;;;;;;5133768;27;20435;-58
2023/07/13 05:06:09;;;;;;;8.25;4.43;;;27.10;99.90;;;;;;5137172;27;20038;-58
2023/07/13 05:08:35;;;;;;;5.15;3.90;;;26.50;99.90;;;;;;5136650;27;20060;-57
2023/07/13 05:11:03;;;;;;;8.73;4.30;;;26.40;99.90;;;;;;5135138;27;20491;-54
2023/07/13 05:13:29;;;;;;;5.90;3.80;;;26.70;99.90;;;;;;5134414;27;20023;-56
2023/07/13 05:16:08;;;;;;;7.72;5.07;;;26.90;99.90;;;;;;5136406;27;20031;-57
2023/07/13 05:18:34;;;;;;;5.93;3.65;;;;;;;;;;5135034;27;20114;-58
2023/07/13 05:21:03;;;;;;;6.30;3.75;;;27.40;99.90;;;;;;5136663;27;20027;-59
2023/07/13 05:23:30;;;;;;;5.55;3.92;;;;;;;;;;5136921;27;20047;-58
2023/07/13 05:25:56;;;;;;;5.70;3.85;;;27.80;99.90;;;;;;5134863;27;20432;-58
2023/07/13 05:28:22;;;;;;;5.00;3.85;;;28.00;99.90;;;;;;5136837;27;20435;-56
2023/07/13 05:30:49;;;;;;;6.97;3.90;;;;;;;;;;5136840;27;20031;-56
2023/07/13 05:33:15;;;;;;;8.30;4.35;;;;;;;;;;5136947;27;20027;-57
2023/07/13 05:35:41;;;;;;;8.88;4.82;;;;;;;;;;5136821;27;20398;-55
2023/07/13 05:38:07;;;;;;;9.68;4.22;;;;;;;;;;5135342;27;20046;-54
2023/07/13 05:40:33;;;;;;;8.45;4.40;;;;;;;;;;5135580;27;20110;-56
2023/07/13 05:42:59;;;;;;;7.95;4.65;;;;;;;;;;5135135;27;20104;-56
2023/07/13 05:45:25;;;;;;;14.57;5.65;;;29.00;99.90;;;;;;5136497;27;20031;-55
2023/07/13 05:47:52;;;;;;;9.10;5.13;;;;;;;;;;5117612;27;20046;-55
2023/07/13 05:50:18;;;;;;;7.65;4.47;;;;;;;;;;5135616;27;20032;-55
2023/07/13 05:52:44;;;;;;;8.88;4.50;;;29.40;99.90;;;;;;5136300;27;20027;-55
2023/07/13 05:55:10;;;;;;;6.95;4.13;;;;;;;;;;5136195;27;20050;-57
2023/07/13 05:57:36;;;;;;;9.75;4.68;;;;;;;;;;5135213;27;20047;-55
2023/07/13 06:00:01;;;;;;;10.73;5.15;;;29.60;99.90;;;;;;5136286;27;20035;-57
2023/07/13 06:02:28;;;;;;;5.43;4.07;;;;;;;;;;5136054;27;20372;-55
2023/07/13 06:04:53;;;;;;;8.18;4.80;;;30.00;99.90;;;;;;5136524;27;20027;-57
2023/07/13 06:07:20;;;;;;;9.00;4.75;;;;;;;;;;5134277;27;20482;-57
2023/07/13 06:09:46;;;;;;;7.70;5.35;;;;;;;;;;5136154;27;20027;-55
2023/07/13 06:12:12;;;;;;;8.65;4.65;;;;;;;;;;5113048;28;20035;-57
2023/07/13 06:14:38;;;;;;;9.63;5.63;;;;;;;;;;5079322;28;20036;-55
2023/07/13 06:17:04;;;;;;;7.53;4.93;;;;;;;;;;5079020;28;20136;-54
2023/07/13 06:19:30;;;;;;;6.00;4.43;;;;;;;;;;5113103;28;20036;-58
2023/07/13 06:21:58;;;;;;;10.55;5.38;;;;;;;;;;5079471;28;20039;-56
2023/07/13 06:24:24;;;;;;;11.60;4.57;;;;;;;;;;5112922;28;20441;-55
2023/07/13 06:26:50;;;;;;;9.50;4.35;;;;;;;;;;5113041;28;20100;-55
2023/07/13 06:29:16;;;;;;;10.23;4.85;;;;;;;;;;5112976;28;20032;-56
2023/07/13 06:31:42;;;;;;;6.78;4.32;;;30.60;99.90;;;;;;5079210;28;20114;-57
2023/07/13 06:34:08;;;;;;;6.85;4.30;;;30.70;99.90;;;;;;5112976;28;20518;-56
2023/07/13 06:36:36;;;;;;;9.52;4.35;;;30.70;99.90;;;;;;5112760;28;20027;-57
2023/07/13 06:39:02;;;;;;;8.63;4.43;;;30.80;99.90;;;;;;5112471;28;20096;-57
2023/07/13 06:41:27;;;;;;;10.10;4.32;;;30.80;99.90;;;;;;5112560;28;20039;-54
2023/07/13 06:43:54;;;;;;;9.50;4.72;;;30.80;99.90;;;;;;5129073;27;20398;-58
2023/07/13 06:46:23;;;;;;;8.02;4.63;;;30.80;99.90;;;;;;5135166;27;20039;-55
2023/07/13 06:48:49;;;;;;;11.43;4.65;;;31.00;99.90;;;;;;5135142;27;20042;-56
2023/07/13 06:51:15;;;;;;;8.00;4.25;;;31.10;99.90;;;;;;5135218;27;20059;-55
2023/07/13 06:53:43;;;;;;;7.53;4.18;;;31.00;99.90;;;;;;5135034;27;20078;-56
2023/07/13 06:56:10;;;;;;;7.70;4.53;;;31.00;99.90;;;;;;5135095;27;20039;-56
2023/07/13 06:58:36;;;;;;;8.63;5.18;;;31.00;99.90;;;;;;5132736;27;20054;-55
2023/07/13 07:01:02;;;;;;;10.95;5.32;;;;;;;;;;5133642;27;20035;-56
2023/07/13 07:03:28;;;;;;;10.88;5.78;;;;;;;;;;5134858;27;20031;-56
2023/07/13 07:05:54;;;;;;;7.47;5.25;;;;;;;;;;5133059;27;20589;-54
2023/07/13 07:08:20;;;;;;;7.88;5.20;;;;;;;;;;5134938;27;20031;-56
2023/07/13 07:10:46;;;;;;;8.35;4.90;;;;;;;;;;5134829;27;20031;-55
2023/07/13 07:13:13;;;;;;;11.80;5.47;;;;;;;;;;5134708;27;20796;-54
2023/07/13 07:15:39;;;;;;;8.05;5.57;;;;;;;;;;5135203;27;20047;-55
2023/07/13 07:18:04;;;;;;;8.10;4.90;;;31.10;99.90;;;;;;5115878;27;20046;-54
2023/07/13 07:20:32;;;;;;;6.43;4.35;;;31.10;99.90;;;;;;5115683;27;20035;-54
2023/07/13 07:22:58;;;;;;;9.80;5.20;;;30.90;99.90;;;;;;5132655;27;20078;-54
2023/07/13 07:25:23;;;;;;;7.72;5.40;;;31.00;99.90;;;;;;5134426;27;20066;-55
2023/07/13 07:27:49;;;;;;;10.52;6.03;;;31.00;99.90;;;;;;5134619;27;20070;-54
2023/07/13 07:30:15;;;;;;;9.90;5.50;;;31.20;99.90;;;;;;5134099;27;20027;-54
2023/07/13 07:32:41;;;;;;;9.00;5.13;;;31.30;99.90;;;;;;5132396;27;20039;-55
2023/07/13 07:35:07;;;;;;;13.00;6.30;;;31.60;99.90;;;;;;5134241;27;20121;-55
2023/07/13 07:37:33;;;;;;;6.10;4.32;;;31.60;99.90;;;;;;5134305;27;20163;-55
2023/07/13 07:39:59;;;;;;;7.43;4.18;;;31.70;99.90;;;;;;5133216;27;20035;-54
2023/07/13 07:42:25;;;;;;;6.93;3.63;;;31.70;99.90;;;;;;5120027;27;20088;-55
2023/07/13 07:44:51;;;;;;;5.78;3.78;;;31.80;99.90;;;;;;5133271;27;20398;-55
2023/07/13 07:47:16;;;;;;;6.10;3.80;;;31.80;99.90;;;;;;5132390;27;20043;-54
2023/07/13 07:49:42;;;;;;;7.00;3.97;;;31.90;99.90;;;;;;5133800;27;20402;-55
2023/07/13 07:52:08;;;;;;;7.65;4.22;;;32.00;99.90;;;;;;5133519;27;20462;-55
2023/07/13 07:54:34;;;;;;;6.38;4.32;;;31.90;99.90;;;;;;5133563;27;20135;-54
2023/07/13 07:57:00;;;;;;;7.40;4.47;;;32.00;99.90;;;;;;5133970;27;20029;-55
2023/07/13 07:59:25;;;;;;;6.00;5.32;;;32.00;99.90;;;;;;5133859;27;20549;-54
2023/07/13 08:01:51;;;;;;;7.93;4.47;;;32.10;99.90;;;;;;5132053;27;20058;-54
2023/07/13 08:04:17;;;;;;;7.15;4.85;;;32.20;99.90;;;;;;5131635;28;20418;-55
2023/07/13 08:06:43;;;;;;;6.45;5.10;;;32.00;99.90;;;;;;5134468;28;20035;-55
2023/07/13 08:09:08;;;;;;;8.45;5.95;;;32.00;99.90;;;;;;5133895;28;20482;-56
2023/07/13 08:11:34;;;;;;;9.75;5.60;;;32.30;99.90;;;;;;5134598;28;20027;-55
2023/07/13 08:14:00;;;;;;;8.95;5.18;;;32.40;99.90;;;;;;5136483;27;20027;-54
2023/07/13 08:16:26;;;;;;;11.18;5.35;;;32.70;99.90;;;;;;5138283;27;20486;-55
2023/07/13 08:18:52;;;;;;;13.38;6.07;;;32.90;99.90;;;;;;5138160;27;20035;-54
2023/07/13 08:21:19;;;;;;;7.18;4.90;;;32.70;99.90;;;;;;5136330;27;20042;-54
2023/07/13 08:23:46;;;;;;;7.78;5.63;;;32.80;99.90;;;;;;5138302;27;20121;-54
2023/07/13 08:26:11;;;;;;;7.95;5.50;;;32.90;99.90;;;;;;5138131;27;20504;-54
2023/07/13 08:28:37;;;;;;;7.93;5.20;;;33.00;99.90;;;;;;5137085;27;20039;-54
2023/07/13 08:31:05;;;;;;;8.30;4.68;;;33.20;99.90;;;;;;5138213;27;20504;-54
2023/07/13 08:33:31;;;;;;;9.15;5.20;;;33.30;99.90;;;;;;5137867;27;20042;-55
2023/07/13 08:35:56;;;;;;;6.80;4.80;;;33.80;99.90;;;;;;5137781;27;20035;-54
2023/07/13 08:38:23;;;;;;;6.25;4.47;;;34.00;99.90;;;;;;5137891;27;20042;-54
2023/07/13 08:40:54;;;;;;;6.20;4.07;;;33.90;99.90;;;;;;5137828;27;20044;-54
2023/07/13 08:43:25;;;;;;;7.90;4.22;;;34.00;99.90;;;;;;5137769;27;20072;-54
2023/07/13 08:46:04;;;;;;;8.05;4.90;;;33.90;99.90;;;;;;5138111;27;20078;-55
2023/07/13 08:48:37;;;;;;;8.73;4.47;;;34.40;99.90;;;;;;5137210;27;20027;-54
2023/07/13 08:51:27;;;;;;;7.78;4.90;;;34.60;99.90;;;;;;5135594;27;20501;-54
2023/07/13 08:53:58;;;;;;;8.73;5.13;;;34.80;99.90;;;;;;5137254;27;20138;-56
2023/07/13 08:56:29;;;;;;;9.38;5.07;;;35.00;99.90;;;;;;5135743;27;20046;-54
2023/07/13 08:59:05;;;;;;;9.00;5.15;;;35.30;99.90;;;;;;5137438;27;20447;-55
2023/07/13 09:01:51;;;;;;;7.05;4.22;;;35.30;99.90;;;;;;5137661;27;20039;-56
2023/07/13 09:04:34;;;;;;;7.00;4.45;;;35.20;99.90;;;;;;5136130;27;20092;-54
2023/07/13 09:07:08;;;;;;;10.77;4.97;;;35.20;99.90;;;;;;5136455;27;20035;-55
2023/07/13 09:09:45;;;;;;;8.55;5.07;;;35.30;99.90;;;;;;5136559;27;20039;-54
2023/07/13 09:12:31;;;;;;;8.48;4.57;;;35.30;99.90;;;;;;5137124;27;20027;-54
2023/07/13 09:14:59;;;;;;;9.30;4.90;;;35.40;99.90;;;;;;5136730;27;20106;-55
2023/07/13 09:17:35;;;;;;;7.55;4.40;;;35.70;99.90;;;;;;5137405;27;20031;-54
2023/07/13 09:20:13;;;;;;;8.82;4.70;;;35.70;99.90;;;;;;5137004;27;20027;-54
2023/07/13 09:22:41;;;;;;;6.47;4.63;;;35.60;99.90;;;;;;5137098;27;20074;-55
2023/07/13 09:25:07;;;;;;;6.90;4.40;;;35.70;99.90;;;;;;5135526;27;20047;-55
2023/07/13 09:27:42;;;;;;;10.82;4.50;;;35.60;99.90;;;;;;5137183;27;20039;-54
2023/07/13 09:30:25;;;;;;;10.35;4.57;;;35.50;99.90;;;;;;5136727;27;20042;-55
2023/07/13 09:32:53;;;;;;;6.22;4.47;;;35.60;99.90;;;;;;5137105;27;20054;-54
2023/07/13 09:35:29;;;;;;;9.63;4.05;;;35.80;99.90;;;;;;5134923;27;20047;-54
2023/07/13 09:38:03;;;;;;;8.60;4.20;;;36.10;99.90;;;;;;5136686;27;20479;-53
2023/07/13 09:41:10;;;;;;;8.52;4.38;;;36.20;99.90;;;;;;5136726;27;20062;-53
2023/07/13 09:43:36;;;;;;;8.70;4.05;;;36.40;99.90;;;;;;5073139;28;20139;-54
2023/07/13 09:46:03;;;;;;;8.52;4.50;;;36.60;99.90;;;;;;5073179;28;20214;-54
2023/07/13 09:48:35;;;;;;;6.28;3.92;;;36.80;99.90;;;;;;5073190;28;20519;-54
2023/07/13 09:51:14;;;;;;;8.45;4.57;;;36.70;99.90;;;;;;5073054;28;20028;-54
2023/07/13 09:53:43;;;;;;;7.60;4.60;;;36.30;99.90;;;;;;5072878;28;20450;-53
2023/07/13 09:56:22;;;;;;;7.22;3.85;;;36.30;99.70;;;;;;5073063;28;20523;-54
2023/07/13 09:58:48;;;;;;;5.18;3.92;;;36.30;99.80;;;;;;5073171;28;20128;-53
2023/07/13 10:01:15;;;;;;;7.93;4.43;;;36.50;99.90;;;;;;5072756;28;20041;-53
2023/07/13 10:03:54;;;;;;;7.53;4.53;;;36.90;99.90;;;;;;5072896;28;20043;-53
2023/07/13 10:06:22;;;;;;;5.57;4.25;;;37.20;99.50;;;;;;5055988;28;20110;-53
2023/07/13 10:08:51;;;;;;;11.75;4.50;;;37.30;99.90;;;;;;5072788;28;20136;-54
2023/07/13 10:11:22;;;;;;;6.47;4.38;;;;;;;;;;5072388;28;20040;-54
2023/07/13 10:13:52;;;;;;;;;;;37.70;98.20;;;;;;5073049;28;20052;-54
2023/07/13 10:16:18;;;;;;;7.38;3.95;;;;;;;;;;5072465;28;19947;-54
2023/07/13 10:18:51;;;;;;;9.85;4.57;;;38.00;99.90;;;;;;5055936;28;20036;-53
2023/07/13 10:21:20;;;;;;;8.75;4.65;;;37.50;97.60;;;;;;5129597;27;20035;-54
2023/07/13 10:23:54;;;;;;;9.32;4.38;;;37.90;99.50;;;;;;5135625;27;20489;-53
2023/07/13 10:26:27;;;;;;;9.20;5.07;;;38.30;99.90;;;;;;5135732;27;20043;-54
2023/07/13 10:28:56;;;;;;;11.15;4.47;;;38.50;99.90;;;;;;5135772;27;20035;-53
2023/07/13 10:31:23;;;;;;;6.90;4.30;;;;;;;;;;5135792;27;20055;-54
2023/07/13 10:33:49;;;;;;;9.77;5.32;;;;;;;;;;5134178;27;20039;-54
2023/07/13 10:36:33;;;;;;;7.18;4.45;;;39.00;99.90;;;;;;5135090;27;20391;-54
2023/07/13 10:39:02;;;;;;;8.20;3.70;;;39.10;99.90;;;;;;5112809;28;20105;-54
2023/07/13 10:41:30;;;;;;;6.18;4.20;;;;;;;;;;5078644;28;20052;-54
2023/07/13 10:43:57;;;;;;;6.45;4.07;;;39.40;99.90;;;;;;5111517;28;20039;-54
2023/07/13 10:46:27;;;;;;;7.50;4.30;;;39.40;96.20;;;;;;5112491;28;20433;-54
2023/07/13 10:49:01;;;;;;;5.37;4.43;;;39.30;95.90;;;;;;5112559;28;20172;-54
2023/07/13 10:51:28;;;;;;;8.52;4.10;;;38.80;94.90;;;;;;5112434;28;20115;-54
2023/07/13 10:54:17;;;;;;;7.57;4.25;;;38.60;94.80;;;;;;5112317;28;20565;-54
2023/07/13 10:56:44;;;;;;;6.43;4.55;;;39.20;95.70;;;;;;5111226;28;20035;-54
2023/07/13 10:59:15;;;;;;;9.98;4.43;;;39.20;95.60;;;;;;5099281;28;20460;-54
2023/07/13 11:01:43;;;;;;;5.43;4.13;;;;;;;;;;5112278;28;20054;-54
2023/07/13 11:04:13;;;;;;;6.70;4.22;;;39.50;94.90;;;;;;5084621;28;20606;-53
2023/07/13 11:06:41;;;;;;;5.55;3.50;;;39.30;95.10;;;;;;5093409;28;20052;-53
2023/07/13 11:09:23;;;;;;;7.53;4.03;;;;;;;;;;5114905;27;20431;-54
2023/07/13 11:11:49;;;;;;;8.00;4.60;;;39.70;94.30;;;;;;5135134;27;20360;-54
2023/07/13 11:14:30;;;;;;;7.57;4.63;;;39.80;94.60;;;;;;5134600;27;20079;-54
2023/07/13 11:16:56;;;;;;;12.00;4.32;;;;;;;;;;5134742;27;20023;-54
2023/07/13 11:19:22;;;;;;;7.00;3.78;;;;;;;;;;5134720;27;20059;-55
2023/07/13 11:22:11;;;;;;;16.20;4.75;;;;;;;;;;5133742;27;20493;-54
2023/07/13 11:25:04;;;;;;;6.57;4.40;;;;;;;;;;5133304;27;20046;-53
2023/07/13 11:27:42;;;;;;;6.97;4.05;;;40.40;99.90;;;;;;5145242;27;20121;-54
2023/07/13 11:30:22;;;;;;;6.25;4.10;;;40.50;94.90;;;;;;5129618;27;20490;-54
2023/07/13 11:32:51;;;;;;;7.53;3.47;;;40.50;99.90;;;;;;5134419;27;20412;-53
2023/07/13 11:35:26;;;;;;;11.15;3.97;;;40.00;99.90;;;;;;5134327;27;20023;-54
2023/07/13 11:37:52;;;;;;;8.77;4.55;;;40.20;99.90;;;;;;5134238;27;20031;-55
2023/07/13 11:40:18;;;;;;;4.78;3.92;;;40.00;99.90;;;;;;5133832;27;20035;-54
2023/07/13 11:42:44;;;;;;;8.00;4.60;;;40.00;99.90;;;;;;5134265;27;20102;-54
2023/07/13 11:45:22;;;;;;;8.75;4.15;;;39.60;96.50;;;;;;5134235;27;20627;-54
2023/07/13 11:47:49;;;;;;;6.22;4.22;;;39.40;99.30;;;;;;5133645;27;20031;-54
2023/07/13 11:50:21;;;;;;;6.72;4.40;;;39.70;99.40;;;;;;5134143;27;20489;-54
2023/07/13 11:52:49;;;;;;;26.05;6.03;;;39.60;99.10;;;;;;5133974;27;20073;-54
2023/07/13 11:55:18;;;;;;;10.88;4.30;;;39.80;98.90;;;;;;5133917;27;20035;-54
2023/07/13 11:57:56;;;;;;;6.75;4.00;;;40.00;97.80;;;;;;5134138;27;20435;-55
2023/07/13 12:00:26;;;;;;;9.85;4.03;;;40.00;98.20;;;;;;5134099;27;20060;-55
2023/07/13 12:02:55;;;;;;;5.65;3.75;;;40.00;92.40;;;;;;5133682;28;20031;-53
2023/07/13 12:05:21;;;;;;;9.68;4.43;;;39.90;95.30;;;;;;5134280;28;20043;-54
2023/07/13 12:07:48;;;;;;;5.90;4.05;;;;;;;;;;5132292;28;20058;-54
2023/07/13 12:10:23;;;;;;;10.13;4.30;;;40.50;99.90;;;;;;5114233;28;20394;-54
2023/07/13 12:12:52;;;;;;;5.43;4.15;;;40.60;92.90;;;;;;5130857;28;20019;-54
2023/07/13 12:15:19;;;;;;;7.32;4.20;;;41.00;92.60;;;;;;5131784;28;20121;-54
2023/07/13 12:17:46;;;;;;;9.25;4.95;;;41.00;91.80;;;;;;5133928;28;20033;-54
2023/07/13 12:20:23;;;;;;;7.90;4.22;;;41.10;93.00;;;;;;5133786;28;20037;-54
2023/07/13 12:22:50;;;;;;;9.35;4.45;;;40.70;91.90;;;;;;5133611;28;20034;-54
2023/07/13 12:25:17;;;;;;;7.70;4.43;;;40.70;91.70;;;;;;5132021;28;20092;-54
2023/07/13 12:27:49;;;;;;;8.82;4.63;;;41.00;91.50;;;;;;5134007;28;20032;-54
2023/07/13 12:30:35;;;;;;;9.25;4.40;;;41.10;90.80;;;;;;5133485;28;20046;-54
2023/07/13 12:33:11;;;;;;;8.63;3.97;;;41.20;91.10;;;;;;5131651;28;20125;-54
2023/07/13 12:35:45;;;;;;;5.78;3.58;;;41.30;91.10;;;;;;5133474;28;20023;-55
2023/07/13 12:38:12;;;;;;;8.25;4.35;;;41.40;91.30;;;;;;5133634;28;20083;-54
2023/07/13 12:40:40;;;;;;;6.78;3.92;;;41.60;91.90;;;;;;5133964;27;20027;-54
2023/07/13 12:43:12;;;;;;;8.05;3.97;;;41.10;90.80;;;;;;5134002;27;20039;-54
2023/07/13 12:45:38;;;;;;;10.00;3.80;;;40.70;90.70;;;;;;5133761;27;20038;-55
2023/07/13 12:48:13;;;;;;;5.18;3.65;;;40.60;90.90;;;;;;5133632;27;20027;-54
2023/07/13 12:50:46;;;;;;;6.85;3.85;;;40.70;91.60;;;;;;5115860;28;20546;-55
2023/07/13 12:53:27;;;;;;;8.10;4.35;;;40.70;91.80;;;;;;5133644;27;20075;-54
2023/07/13 12:55:59;;;;;;;5.57;3.92;;;40.40;91.50;;;;;;5133951;27;20039;-55
2023/07/13 12:58:38;;;;;;;14.15;4.60;;;40.00;90.80;;;;;;5115002;27;20031;-55
2023/07/13 13:01:05;;;;;;;8.00;4.40;;;40.20;94.80;;;;;;5137314;27;20047;-55
2023/07/13 13:03:36;;;;;;;13.45;4.13;;;;;;;;;;5137654;27;20502;-54
2023/07/13 13:06:04;;;;;;;6.05;3.63;;;;;;;;;;5135174;27;20059;-54
2023/07/13 13:08:34;;;;;;;8.75;4.03;;;;;;;;;;5137582;27;20023;-54
2023/07/13 13:11:01;;;;;;;5.53;3.78;;;;;;;;;;5137264;27;20020;-54
2023/07/13 13:13:27;;;;;;;5.75;3.72;;;39.70;90.60;;;;;;5137208;27;20382;-55
2023/07/13 13:15:53;;;;;;;8.80;4.05;;;39.90;90.80;;;;;;5137140;27;20034;-55